Time;durP1;ratioP1;P1;durP2;ratioP2;P2;SDS_P1;SDS_P2;PMS_P1;PMS_P2;Temp;Humidity;BMP_temperature;BMP_pressure;BME280_temperature;BME280_humidity;BME280_pressure;Samples;Min_cycle;Max_cycle;Signal;HPM_P1;HPM_P2
2023/09/04 00:02:25;;;;;;;1999.90;999.90;;;12.20;99.90;;;;;;5051865;28;20040;-69
2023/09/04 00:04:51;;;;;;;1999.90;999.90;;;12.20;99.90;;;;;;5040258;28;20045;-69
2023/09/04 00:07:18;;;;;;;1999.90;999.90;;;12.10;99.90;;;;;;5052827;28;20064;-69
2023/09/04 00:09:44;;;;;;;1999.90;999.90;;;12.10;99.90;;;;;;5049468;28;20103;-69
2023/09/04 00:12:10;;;;;;;1999.90;999.90;;;12.10;99.90;;;;;;5053902;28;20819;-69
2023/09/04 00:14:35;;;;;;;1999.90;999.90;;;12.10;99.90;;;;;;5049614;28;20167;-69
2023/09/04 00:17:01;;;;;;;1999.90;999.90;;;12.00;99.90;;;;;;5050530;28;20141;-69
2023/09/04 00:19:27;;;;;;;1999.90;999.90;;;12.00;99.90;;;;;;5042289;28;20140;-69
2023/09/04 00:21:52;;;;;;;1999.90;999.90;;;12.00;99.90;;;;;;5025686;28;20045;-69
2023/09/04 00:24:20;;;;;;;1999.90;999.90;;;11.90;99.90;;;;;;5045230;28;20440;-69
2023/09/04 00:26:46;;;;;;;1999.90;999.90;;;11.90;99.90;;;;;;5056786;28;20041;-69
2023/09/04 00:29:11;;;;;;;1999.90;999.90;;;12.00;99.90;;;;;;5050497;28;20048;-69
2023/09/04 00:31:37;;;;;;;1999.90;999.90;;;11.90;99.90;;;;;;5063741;28;20134;-69
2023/09/04 00:34:02;;;;;;;1999.90;999.90;;;11.90;99.90;;;;;;5041035;28;20160;-69
2023/09/04 00:36:28;;;;;;;1999.90;999.90;;;11.90;99.90;;;;;;5059550;28;20056;-69
2023/09/04 00:38:54;;;;;;;1999.90;999.90;;;12.00;99.90;;;;;;5059915;28;20730;-69
2023/09/04 00:41:19;;;;;;;1999.90;999.90;;;11.90;99.90;;;;;;5027831;28;20048;-69
2023/09/04 00:43:45;;;;;;;1999.90;999.90;;;12.00;99.90;;;;;;5062970;28;20052;-70
2023/09/04 00:46:11;;;;;;;1999.90;999.90;;;11.90;99.90;;;;;;5058428;28;20041;-69
2023/09/04 00:48:39;;;;;;;1999.90;999.90;;;11.90;99.90;;;;;;5036124;28;20040;-69
2023/09/04 00:51:05;;;;;;;1999.90;999.90;;;12.00;99.90;;;;;;5060639;28;20042;-69
2023/09/04 00:53:33;;;;;;;1999.90;999.90;;;11.90;99.90;;;;;;5054446;28;20472;-70
2023/09/04 00:56:01;;;;;;;1999.90;999.90;;;11.90;99.90;;;;;;5052382;28;20056;-70
2023/09/04 00:58:27;;;;;;;1999.90;999.90;;;11.90;99.90;;;;;;5053150;28;20047;-70
2023/09/04 01:00:53;;;;;;;1999.90;999.90;;;11.90;99.90;;;;;;5059321;28;20119;-70
2023/09/04 01:03:20;;;;;;;1999.90;999.90;;;11.80;99.90;;;;;;5049793;28;20052;-70
2023/09/04 01:05:46;;;;;;;1999.90;999.90;;;11.80;99.90;;;;;;5045894;28;20066;-69
2023/09/04 01:08:13;;;;;;;1999.90;999.90;;;11.80;99.90;;;;;;5058805;28;20037;-69
2023/09/04 01:10:54;;;;;;;1999.90;999.90;;;11.70;99.90;;;;;;5050949;28;20127;-70
2023/09/04 01:13:25;;;;;;;1999.90;999.90;;;11.80;99.90;;;;;;5033097;28;20036;-69
2023/09/04 01:15:53;;;;;;;1999.90;999.90;;;11.70;99.90;;;;;;5040200;28;20049;-69
2023/09/04 01:18:19;;;;;;;1999.90;999.90;;;11.70;99.90;;;;;;5054549;28;20044;-69
2023/09/04 01:20:58;;;;;;;1999.90;999.90;;;11.60;99.90;;;;;;5041120;28;20412;-70
2023/09/04 01:23:23;;;;;;;1999.90;999.90;;;11.60;99.90;;;;;;5041319;28;20037;-70
2023/09/04 01:25:54;;;;;;;1999.90;999.90;;;11.60;99.90;;;;;;5049450;28;20389;-70
2023/09/04 01:28:58;;;;;;;1999.90;999.90;;;11.60;99.90;;;;;;5048970;28;20441;-69
2023/09/04 01:31:29;;;;;;;1999.90;999.90;;;11.60;99.90;;;;;;5054105;28;20044;-69
2023/09/04 01:34:05;;;;;;;1999.90;999.90;;;11.50;99.90;;;;;;5021875;28;20043;-69
2023/09/04 01:36:33;;;;;;;1999.90;999.90;;;11.50;99.90;;;;;;5054674;28;20048;-69
2023/09/04 01:38:59;;;;;;;1999.90;999.90;;;11.50;99.90;;;;;;5038551;28;20052;-69
2023/09/04 01:41:25;;;;;;;1999.90;999.90;;;11.50;99.90;;;;;;5042164;28;20068;-69
2023/09/04 01:43:50;;;;;;;1999.90;999.90;;;11.40;99.90;;;;;;5044923;28;20045;-69
2023/09/04 01:46:16;;;;;;;1999.90;999.90;;;11.50;99.90;;;;;;5047174;28;20569;-69
2023/09/04 01:48:42;;;;;;;1999.90;999.90;;;11.40;99.90;;;;;;5051385;28;20045;-69
2023/09/04 01:51:07;;;;;;;1999.90;999.90;;;11.40;99.90;;;;;;5029611;28;20041;-69
2023/09/04 01:53:33;;;;;;;1999.90;999.90;;;11.40;99.90;;;;;;5039579;28;20678;-69
2023/09/04 01:55:59;;;;;;;1999.90;999.90;;;11.30;99.90;;;;;;5055964;28;20086;-69
2023/09/04 01:58:27;;;;;;;1999.90;999.90;;;11.30;99.90;;;;;;5056512;28;20418;-69
2023/09/04 02:00:52;;;;;;;1999.90;999.90;;;11.30;99.90;;;;;;5051198;28;20044;-70
2023/09/04 02:03:18;;;;;;;1999.90;999.90;;;11.30;99.90;;;;;;5051568;28;20052;-69
2023/09/04 02:05:43;;;;;;;1999.90;999.90;;;11.30;99.90;;;;;;5052578;28;20049;-69
2023/09/04 02:08:09;;;;;;;1999.90;999.90;;;11.20;99.90;;;;;;5050211;28;20089;-69
2023/09/04 02:10:38;;;;;;;1999.90;999.90;;;11.20;99.90;;;;;;5059646;28;20176;-69
2023/09/04 02:13:04;;;;;;;1999.90;999.90;;;11.20;99.90;;;;;;5051982;28;20055;-69
2023/09/04 02:15:30;;;;;;;1999.90;999.90;;;11.10;99.90;;;;;;5046926;28;20032;-69
2023/09/04 02:17:55;;;;;;;1999.90;999.90;;;11.10;99.90;;;;;;5035917;28;20041;-69
2023/09/04 02:20:21;;;;;;;1999.90;999.90;;;11.10;99.90;;;;;;5064996;28;20040;-69
2023/09/04 02:22:47;;;;;;;1999.90;999.90;;;11.10;99.90;;;;;;5058921;28;20200;-69
2023/09/04 02:25:13;;;;;;;1999.90;999.90;;;11.00;99.90;;;;;;5053841;28;20169;-69
2023/09/04 02:27:39;;;;;;;1999.90;999.90;;;11.00;99.90;;;;;;5053369;28;20222;-69
2023/09/04 02:30:07;;;;;;;1999.90;999.90;;;11.00;99.90;;;;;;5053612;28;20498;-69
2023/09/04 02:32:33;;;;;;;1999.90;999.90;;;11.00;99.90;;;;;;5062357;28;20044;-69
2023/09/04 02:34:59;;;;;;;1999.90;999.90;;;10.90;99.90;;;;;;5050829;28;20049;-70
2023/09/04 02:37:26;;;;;;;1999.90;999.90;;;10.90;99.90;;;;;;5055425;28;20041;-69
2023/09/04 02:39:51;;;;;;;1999.90;999.90;;;10.90;99.90;;;;;;5055440;28;20064;-69
2023/09/04 02:42:17;;;;;;;1999.90;999.90;;;10.90;99.90;;;;;;5058245;28;20099;-69
2023/09/04 02:44:43;;;;;;;1999.90;999.90;;;10.90;99.90;;;;;;5055443;28;20047;-69
2023/09/04 02:47:08;;;;;;;1999.90;999.90;;;10.90;99.90;;;;;;5037110;28;20075;-69
2023/09/04 02:49:34;;;;;;;1999.90;999.90;;;10.90;99.90;;;;;;5054869;28;20036;-69
2023/09/04 02:51:59;;;;;;;1999.90;999.90;;;10.90;99.90;;;;;;5055584;28;20072;-69
2023/09/04 02:54:25;;;;;;;1999.90;999.90;;;10.80;99.90;;;;;;5062848;28;20037;-69
2023/09/04 02:56:51;;;;;;;1999.90;999.90;;;10.80;99.90;;;;;;5056019;28;20476;-69
2023/09/04 02:59:16;;;;;;;1999.90;999.90;;;10.80;99.90;;;;;;5032158;28;20048;-69
2023/09/04 03:01:42;;;;;;;1999.90;999.90;;;10.80;99.90;;;;;;5043754;28;20382;-70
2023/09/04 03:04:08;;;;;;;1999.90;999.90;;;10.80;99.90;;;;;;5064920;28;20475;-69
2023/09/04 03:06:34;;;;;;;1999.90;999.90;;;10.80;99.90;;;;;;5053693;28;20052;-69
2023/09/04 03:08:59;;;;;;;1999.90;999.90;;;10.80;99.90;;;;;;5059157;28;20074;-69
2023/09/04 03:11:25;;;;;;;1999.90;999.90;;;10.80;99.90;;;;;;5055471;28;20719;-69
2023/09/04 03:13:51;;;;;;;1999.90;999.90;;;10.80;99.90;;;;;;5051424;28;20393;-69
2023/09/04 03:16:16;;;;;;;1999.90;999.90;;;10.70;99.90;;;;;;5045230;28;20032;-69
2023/09/04 03:18:42;;;;;;;1999.90;999.90;;;10.70;99.90;;;;;;5036865;28;20127;-69
2023/09/04 03:21:08;;;;;;;1999.90;999.90;;;10.70;99.90;;;;;;5060382;28;20522;-69
2023/09/04 03:23:34;;;;;;;1999.90;999.90;;;10.70;99.90;;;;;;5026481;28;20059;-69
2023/09/04 03:26:00;;;;;;;1999.90;999.90;;;10.70;99.90;;;;;;5065030;28;20052;-69
2023/09/04 03:28:26;;;;;;;1999.90;999.90;;;10.60;99.90;;;;;;5059976;28;20411;-69
2023/09/04 03:30:51;;;;;;;1999.90;999.90;;;10.60;99.90;;;;;;5020836;28;20110;-69
2023/09/04 03:33:17;;;;;;;1999.90;999.90;;;10.60;99.90;;;;;;5056287;28;20098;-69
2023/09/04 03:35:42;;;;;;;1999.90;999.90;;;10.50;99.90;;;;;;5028720;28;20127;-69
2023/09/04 03:38:08;;;;;;;1999.90;999.90;;;10.50;99.90;;;;;;5054525;28;20064;-69
2023/09/04 03:40:34;;;;;;;1999.90;999.90;;;10.50;99.90;;;;;;5043985;28;20036;-69
2023/09/04 03:42:59;;;;;;;1999.90;999.90;;;10.50;99.90;;;;;;5038218;28;20750;-69
2023/09/04 03:45:34;;;;;;;1999.90;999.90;;;10.50;99.90;;;;;;5032043;28;20090;-69
2023/09/04 03:48:01;;;;;;;1999.90;999.90;;;10.50;99.90;;;;;;5052100;28;20049;-69
2023/09/04 03:50:27;;;;;;;1999.90;999.90;;;10.50;99.90;;;;;;5038759;28;20141;-69
2023/09/04 03:52:53;;;;;;;1999.90;999.90;;;10.40;99.90;;;;;;5054361;28;20476;-69
2023/09/04 03:55:19;;;;;;;1999.90;999.90;;;10.40;99.90;;;;;;5055065;28;20189;-69
2023/09/04 03:57:51;;;;;;;1999.90;999.90;;;10.40;99.90;;;;;;5046994;28;20056;-69
2023/09/04 04:00:18;;;;;;;1999.90;999.90;;;10.40;99.90;;;;;;5062822;28;20041;-69
2023/09/04 04:02:45;;;;;;;1999.90;999.90;;;10.40;99.90;;;;;;5063358;28;20493;-69
2023/09/04 04:05:12;;;;;;;1999.90;999.90;;;10.40;99.90;;;;;;5049362;28;20166;-69
2023/09/04 04:07:38;;;;;;;1999.90;999.90;;;10.30;99.90;;;;;;5051591;28;20049;-69
2023/09/04 04:10:05;;;;;;;1999.90;999.90;;;10.30;99.90;;;;;;5033126;28;20048;-69
2023/09/04 04:12:31;;;;;;;1999.90;999.90;;;10.30;99.90;;;;;;5062822;28;20440;-69
2023/09/04 04:14:57;;;;;;;1999.90;999.90;;;10.30;99.90;;;;;;5040128;28;20052;-69
2023/09/04 04:17:24;;;;;;;1999.90;999.90;;;10.20;99.90;;;;;;5053709;28;20041;-69
2023/09/04 04:19:53;;;;;;;1999.90;999.90;;;10.20;99.90;;;;;;5051758;28;20417;-69
2023/09/04 04:22:20;;;;;;;1999.90;999.90;;;10.20;99.90;;;;;;5060773;28;20507;-69
2023/09/04 04:24:49;;;;;;;1999.90;999.90;;;10.20;99.90;;;;;;5057342;28;20044;-69
2023/09/04 04:27:16;;;;;;;1999.90;999.90;;;10.20;99.90;;;;;;5050989;28;20143;-69
2023/09/04 04:29:46;;;;;;;1999.90;999.90;;;10.10;99.90;;;;;;5054663;28;20059;-69
2023/09/04 04:32:11;;;;;;;1999.90;999.90;;;10.10;99.90;;;;;;5062024;28;20084;-69
2023/09/04 04:34:37;;;;;;;1999.90;999.90;;;10.10;99.90;;;;;;5051455;28;20154;-69
2023/09/04 04:37:04;;;;;;;1999.90;999.90;;;10.10;99.90;;;;;;5054151;28;20529;-69
2023/09/04 04:39:29;;;;;;;1999.90;999.90;;;10.10;99.90;;;;;;5047711;28;20478;-69
2023/09/04 04:41:55;;;;;;;1999.90;999.90;;;10.10;99.90;;;;;;5057619;28;20051;-69
2023/09/04 04:44:21;;;;;;;1999.90;999.90;;;10.10;99.90;;;;;;5056042;28;20043;-69
2023/09/04 04:46:47;;;;;;;1999.90;999.90;;;10.10;99.90;;;;;;5050381;28;20758;-69
2023/09/04 04:49:14;;;;;;;1999.90;999.90;;;10.10;99.90;;;;;;5047786;28;20397;-69
2023/09/04 04:51:39;;;;;;;1999.90;999.90;;;10.20;99.90;;;;;;5045107;28;20037;-69
2023/09/04 04:54:05;;;;;;;1999.90;999.90;;;10.30;99.90;;;;;;5055770;28;20542;-69
2023/09/04 04:56:31;;;;;;;1999.90;999.90;;;10.30;99.90;;;;;;5051016;28;20525;-69
2023/09/04 04:58:56;;;;;;;1999.90;999.90;;;10.40;99.90;;;;;;5059603;28;20040;-69
2023/09/04 05:01:22;;;;;;;1999.90;999.90;;;10.30;99.90;;;;;;5027719;28;20056;-69
2023/09/04 05:03:47;;;;;;;1999.90;999.90;;;10.30;99.90;;;;;;5037758;28;20160;-69
2023/09/04 05:06:13;;;;;;;1999.90;999.90;;;10.30;99.90;;;;;;5047067;28;20064;-69
2023/09/04 05:08:38;;;;;;;1999.90;999.90;;;10.30;99.90;;;;;;5042552;28;20417;-69
2023/09/04 05:11:05;;;;;;;1999.90;999.90;;;10.30;99.90;;;;;;5049123;28;20131;-69
2023/09/04 05:13:31;;;;;;;1999.90;999.90;;;10.30;99.90;;;;;;5056795;28;20036;-69
2023/09/04 05:16:03;;;;;;;1999.90;999.90;;;10.30;99.90;;;;;;5031800;28;20048;-69
2023/09/04 05:18:29;;;;;;;1999.90;999.90;;;10.30;99.90;;;;;;5064872;28;20041;-69
2023/09/04 05:20:55;;;;;;;1999.90;999.90;;;10.40;99.90;;;;;;5054151;28;20043;-69
2023/09/04 05:23:21;;;;;;;1999.90;999.90;;;10.40;99.90;;;;;;5045252;28;20036;-69
2023/09/04 05:25:53;;;;;;;1999.90;999.90;;;10.40;99.90;;;;;;5049210;28;20810;-69
2023/09/04 05:28:19;;;;;;;1999.90;999.90;;;10.40;99.90;;;;;;5059355;28;20705;-69
2023/09/04 05:30:45;;;;;;;1999.90;999.90;;;10.50;99.90;;;;;;5055069;28;20504;-69
2023/09/04 05:33:11;;;;;;;1999.90;999.90;;;10.50;99.90;;;;;;5055753;28;20037;-69
2023/09/04 05:35:37;;;;;;;1999.90;999.90;;;10.50;99.90;;;;;;5049226;28;20045;-69
2023/09/04 05:38:02;;;;;;;1999.90;999.90;;;10.60;99.90;;;;;;5032627;28;20393;-69
2023/09/04 05:40:28;;;;;;;1999.90;999.90;;;10.70;99.90;;;;;;5050925;28;20040;-69
2023/09/04 05:42:54;;;;;;;1999.90;999.90;;;10.70;99.90;;;;;;5033815;28;20131;-69
2023/09/04 05:45:19;;;;;;;1999.90;999.90;;;10.80;99.90;;;;;;5052845;28;20099;-69
2023/09/04 05:47:49;;;;;;;1999.90;999.90;;;10.80;99.90;;;;;;5050561;28;20055;-69
2023/09/04 05:50:15;;;;;;;1999.90;999.90;;;10.80;99.90;;;;;;5065379;28;20045;-69
2023/09/04 05:52:40;;;;;;;1999.90;999.90;;;10.90;99.90;;;;;;5046695;28;20048;-69
2023/09/04 05:55:07;;;;;;;1999.90;999.90;;;10.90;99.90;;;;;;5057492;28;20501;-69
2023/09/04 05:57:33;;;;;;;1999.90;999.90;;;11.00;99.90;;;;;;5047364;28;20052;-69
2023/09/04 05:59:59;;;;;;;1999.90;999.90;;;11.10;99.90;;;;;;5052444;28;20052;-69
2023/09/04 06:02:28;;;;;;;1999.90;999.90;;;11.20;99.90;;;;;;5044374;28;20765;-69
2023/09/04 06:04:54;;;;;;;1999.90;999.90;;;11.40;99.90;;;;;;5062818;28;20047;-69
2023/09/04 06:07:19;;;;;;;1999.90;999.90;;;11.50;99.90;;;;;;5048372;28;20048;-68
2023/09/04 06:09:45;;;;;;;1999.90;999.90;;;11.60;99.90;;;;;;5033039;28;20045;-68
2023/09/04 06:12:11;;;;;;;1999.90;999.90;;;11.70;99.90;;;;;;5046826;28;20092;-68
2023/09/04 06:14:38;;;;;;;1999.90;999.90;;;11.80;99.90;;;;;;5054480;28;20029;-68
2023/09/04 06:17:04;;;;;;;1999.90;999.90;;;11.90;99.90;;;;;;5051425;28;20051;-68
2023/09/04 06:19:30;;;;;;;1999.90;999.90;;;12.00;99.90;;;;;;5050436;28;20045;-68
2023/09/04 06:21:56;;;;;;;1999.90;999.90;;;12.00;99.90;;;;;;5035092;28;20127;-71
2023/09/04 06:24:22;;;;;;;1999.90;999.90;;;12.10;99.90;;;;;;5047203;28;20041;-68
2023/09/04 06:26:48;;;;;;;1999.90;999.90;;;12.20;99.90;;;;;;5051706;28;20825;-68
2023/09/04 06:29:18;;;;;;;1999.90;999.90;;;12.30;99.90;;;;;;5065691;28;20103;-68
2023/09/04 06:31:44;;;;;;;1999.90;999.90;;;12.30;99.90;;;;;;5064241;28;20126;-68
2023/09/04 06:34:10;;;;;;;1999.90;999.90;;;12.40;99.90;;;;;;5062761;28;20060;-68
2023/09/04 06:36:36;;;;;;;1999.90;999.90;;;12.50;99.90;;;;;;5032533;28;20051;-69
2023/09/04 06:39:05;;;;;;;1999.90;999.90;;;12.60;99.90;;;;;;5047752;28;20037;-69
2023/09/04 06:41:32;;;;;;;1999.90;999.90;;;12.70;99.90;;;;;;5036581;28;20397;-69
2023/09/04 06:43:58;;;;;;;1999.90;999.90;;;12.80;99.90;;;;;;5051143;28;20047;-69
2023/09/04 06:46:24;;;;;;;1999.90;999.90;;;13.00;99.90;;;;;;5053652;28;20037;-70
2023/09/04 06:48:49;;;;;;;1999.90;999.90;;;13.10;99.90;;;;;;5049383;28;20106;-69
2023/09/04 06:51:16;;;;;;;1999.90;999.90;;;13.30;99.90;;;;;;5045635;28;20052;-69
2023/09/04 06:53:42;;;;;;;1999.90;999.90;;;13.40;99.90;;;;;;5049294;28;20480;-69
2023/09/04 06:56:08;;;;;;;1999.90;999.90;;;13.60;99.90;;;;;;5051583;28;20512;-69
2023/09/04 06:58:34;;;;;;;1999.90;999.90;;;13.70;99.90;;;;;;5063372;28;20036;-69
2023/09/04 07:01:03;;;;;;;1999.90;999.90;;;13.90;99.90;;;;;;5040215;28;20032;-69
2023/09/04 07:03:29;;;;;;;1999.90;999.90;;;14.30;99.90;;;;;;5062398;28;20040;-70
2023/09/04 07:05:55;;;;;;;1999.90;999.90;;;14.60;99.90;;;;;;5055941;28;20076;-68
2023/09/04 07:08:21;;;;;;;1999.90;999.90;;;14.70;99.90;;;;;;5060221;28;20044;-70
2023/09/04 07:10:47;;;;;;;1999.90;999.90;;;14.80;99.90;;;;;;5064590;28;20044;-69
2023/09/04 07:13:13;;;;;;;1999.90;999.90;;;14.80;99.90;;;;;;5039670;28;20048;-69
2023/09/04 07:15:40;;;;;;;1999.90;999.90;;;15.00;99.90;;;;;;5048761;28;20033;-69
2023/09/04 07:18:07;;;;;;;1999.90;999.90;;;15.20;99.90;;;;;;5041324;28;20508;-69
2023/09/04 07:20:32;;;;;;;1999.90;999.90;;;15.30;99.90;;;;;;5054101;28;20051;-69
2023/09/04 07:22:58;;;;;;;1999.90;999.90;;;15.60;99.90;;;;;;5060209;28;20052;-69
2023/09/04 07:25:24;;;;;;;1999.90;999.90;;;15.80;99.90;;;;;;5032227;28;20515;-69
2023/09/04 07:27:49;;;;;;;1999.90;999.90;;;15.80;99.90;;;;;;5057977;28;20863;-69
2023/09/04 07:30:15;;;;;;;1999.90;999.90;;;15.90;99.90;;;;;;5061493;28;20500;-69
2023/09/04 07:32:41;;;;;;;1999.90;999.90;;;16.10;99.90;;;;;;5061554;28;20041;-69
2023/09/04 07:35:07;;;;;;;1999.90;999.90;;;16.20;99.90;;;;;;5066516;28;20509;-69
2023/09/04 07:37:32;;;;;;;1999.90;999.90;;;16.30;99.90;;;;;;5041039;28;20475;-69
2023/09/04 07:39:58;;;;;;;1999.90;999.90;;;16.40;99.90;;;;;;5046907;28;20135;-69
2023/09/04 07:42:24;;;;;;;1999.90;999.90;;;16.40;99.90;;;;;;5045211;28;20040;-69
2023/09/04 07:44:50;;;;;;;1999.90;999.90;;;16.60;99.90;;;;;;5047106;28;20618;-69
2023/09/04 07:47:16;;;;;;;1999.90;999.90;;;16.70;99.90;;;;;;5027351;28;20040;-69
2023/09/04 07:49:41;;;;;;;1999.90;999.90;;;16.80;99.90;;;;;;5025657;28;20120;-69
2023/09/04 07:52:07;;;;;;;1999.90;999.90;;;16.90;99.90;;;;;;5035768;28;20147;-69
2023/09/04 07:54:33;;;;;;;1999.90;999.90;;;17.00;99.90;;;;;;5044717;28;20041;-69
2023/09/04 07:57:00;;;;;;;1999.90;999.90;;;17.00;99.90;;;;;;5047944;28;20144;-69
2023/09/04 07:59:26;;;;;;;1999.90;999.90;;;17.20;99.90;;;;;;5045103;28;20052;-69
2023/09/04 08:01:51;;;;;;;1999.90;999.90;;;17.30;99.90;;;;;;5052146;28;20481;-70
2023/09/04 08:04:17;;;;;;;1999.90;999.90;;;17.40;99.90;;;;;;5046788;28;20492;-69
2023/09/04 08:06:43;;;;;;;1999.90;999.90;;;17.50;99.90;;;;;;5045481;28;20060;-69
2023/09/04 08:09:08;;;;;;;1999.90;999.90;;;17.60;99.90;;;;;;5039212;28;20052;-69
2023/09/04 08:11:35;;;;;;;1999.90;999.90;;;17.70;99.90;;;;;;5047411;28;20049;-70
2023/09/04 08:14:01;;;;;;;1999.90;999.90;;;17.80;99.90;;;;;;5048687;28;20131;-70
2023/09/04 08:16:27;;;;;;;1999.90;999.90;;;17.80;99.90;;;;;;5050570;28;20135;-70
2023/09/04 08:18:52;;;;;;;1999.90;999.90;;;17.90;99.90;;;;;;5063804;28;20390;-70
2023/09/04 08:21:18;;;;;;;1999.90;999.90;;;18.10;99.90;;;;;;5032998;28;20726;-70
2023/09/04 08:23:44;;;;;;;1999.90;999.90;;;18.40;99.90;;;;;;5044227;28;20048;-70
2023/09/04 08:26:14;;;;;;;1999.90;999.90;;;18.60;99.90;;;;;;5060816;28;20037;-70
2023/09/04 08:28:40;;;;;;;1999.90;999.90;;;18.80;99.90;;;;;;5037480;28;20115;-70
2023/09/04 08:31:07;;;;;;;1999.90;999.90;;;18.90;99.90;;;;;;5049688;28;20045;-70
2023/09/04 08:33:33;;;;;;;1999.90;999.90;;;19.00;99.90;;;;;;5044283;28;20041;-70
2023/09/04 08:35:59;;;;;;;1999.90;999.90;;;19.00;99.90;;;;;;5050267;28;20828;-70
2023/09/04 08:38:25;;;;;;;1999.90;999.90;;;19.00;99.90;;;;;;5030833;28;20541;-70
2023/09/04 08:40:51;;;;;;;1999.90;999.90;;;19.10;99.90;;;;;;5051696;28;20044;-70
2023/09/04 08:43:16;;;;;;;1999.90;999.90;;;19.10;99.90;;;;;;5047009;28;20052;-70
2023/09/04 08:45:43;;;;;;;1999.90;999.90;;;19.20;99.90;;;;;;5046723;28;20052;-70
2023/09/04 08:48:11;;;;;;;77.70;74.20;;;19.30;99.90;;;;;;5049162;28;20047;-71
2023/09/04 08:50:37;;;;;;;560.88;308.13;;;19.40;99.90;;;;;;5031037;28;20059;-71
2023/09/04 08:53:04;;;;;;;568.42;315.40;;;19.70;99.90;;;;;;5052798;28;20064;-71
2023/09/04 08:55:30;;;;;;;1045.47;543.38;;;20.60;99.90;;;;;;5065968;28;20616;-70
2023/09/04 08:57:58;;;;;;;94.13;89.88;;;21.50;99.90;;;;;;5063993;28;20037;-71
2023/09/04 09:00:24;;;;;;;142.23;135.82;;;22.20;99.90;;;;;;5052407;28;20044;-70
2023/09/04 09:02:50;;;;;;;120.00;114.72;;;22.80;99.90;;;;;;5051024;28;20044;-72
2023/09/04 09:05:16;;;;;;;121.60;116.38;;;23.20;99.90;;;;;;5051243;28;20061;-71
2023/09/04 09:07:44;;;;;;;155.32;148.77;;;23.60;99.90;;;;;;5067057;28;20048;-71
2023/09/04 09:10:19;;;;;;;139.70;133.73;;;23.90;99.90;;;;;;5050542;28;20484;-70
2023/09/04 09:12:44;;;;;;;141.57;135.60;;;24.10;99.90;;;;;;5044907;28;20038;-71
2023/09/04 09:15:10;;;;;;;203.95;195.20;;;24.40;99.90;;;;;;5053003;28;20044;-70
2023/09/04 09:17:49;;;;;;;373.02;355.40;;;24.60;99.90;;;;;;5048597;28;20550;-71
2023/09/04 09:20:30;;;;;;;391.00;372.17;;;24.70;99.90;;;;;;5054410;28;20405;-72
2023/09/04 09:22:56;;;;;;;430.52;409.05;;;24.90;99.90;;;;;;5045062;28;20041;-71
2023/09/04 09:25:21;;;;;;;529.85;502.23;;;25.00;99.90;;;;;;5065676;28;20386;-71
2023/09/04 09:27:49;;;;;;;545.33;516.10;;;25.20;99.90;;;;;;5048539;28;20126;-71
2023/09/04 09:30:15;;;;;;;412.10;391.95;;;25.20;99.90;;;;;;5034984;28;20439;-71
2023/09/04 09:32:42;;;;;;;339.80;324.17;;;25.30;99.90;;;;;;5068875;28;20044;-71
2023/09/04 09:35:09;;;;;;;445.90;423.10;;;25.30;99.90;;;;;;5047296;28;21058;-71
2023/09/04 09:37:35;;;;;;;409.25;389.35;;;25.30;99.90;;;;;;5051221;28;20382;-72
2023/09/04 09:40:04;;;;;;;438.80;416.90;;;25.30;99.90;;;;;;5053924;28;20040;-71
2023/09/04 09:42:31;;;;;;;495.40;468.83;;;25.30;99.90;;;;;;5054227;28;20071;-71
2023/09/04 09:44:56;;;;;;;600.95;566.88;;;25.30;99.90;;;;;;5050202;28;20472;-71
2023/09/04 09:47:22;;;;;;;555.10;525.00;;;25.40;99.90;;;;;;5054276;28;20084;-70
2023/09/04 09:49:48;;;;;;;544.03;514.58;;;25.40;99.90;;;;;;5050776;28;20103;-70
2023/09/04 09:52:13;;;;;;;538.20;509.67;;;25.30;99.90;;;;;;5037166;28;20043;-70
2023/09/04 09:54:44;;;;;;;546.50;517.00;;;25.20;99.90;;;;;;5051147;28;20045;-71
2023/09/04 09:57:15;;;;;;;561.63;530.83;;;25.10;99.90;;;;;;5017653;28;20033;-71
2023/09/04 09:59:43;;;;;;;575.38;543.33;;;25.10;99.90;;;;;;5060720;28;20068;-71
2023/09/04 10:02:09;;;;;;;566.17;534.83;;;25.10;99.90;;;;;;5051376;28;20120;-71
2023/09/04 10:04:36;;;;;;;604.88;570.55;;;25.10;99.90;;;;;;5049224;28;20041;-71
2023/09/04 10:07:04;;;;;;;568.03;536.63;;;25.00;99.90;;;;;;5037459;28;20045;-71
2023/09/04 10:10:12;;;;;;;548.05;518.60;;;25.30;99.90;;;;;;5048732;28;20040;-71
2023/09/04 10:12:48;;;;;;;504.35;478.02;;;25.40;99.90;;;;;;5033026;28;20049;-71
2023/09/04 10:15:22;;;;;;;498.98;473.08;;;25.50;99.90;;;;;;5051563;28;20051;-71
2023/09/04 10:18:05;;;;;;;503.73;477.25;;;25.60;99.90;;;;;;5055456;28;20512;-71
2023/09/04 10:20:33;;;;;;;532.85;504.08;;;25.70;99.90;;;;;;5043389;28;20033;-71
2023/09/04 10:23:09;;;;;;;513.38;486.40;;;25.80;99.90;;;;;;5043665;28;20044;-71
2023/09/04 10:25:54;;;;;;;470.90;446.98;;;25.80;99.90;;;;;;5036019;28;20044;-71
2023/09/04 10:28:48;;;;;;;520.10;492.25;;;25.90;99.90;;;;;;5019062;28;20439;-71
2023/09/04 10:31:14;;;;;;;399.30;380.00;;;26.00;99.90;;;;;;5041714;28;20054;-71
2023/09/04 10:33:40;;;;;;;414.52;394.10;;;26.00;99.90;;;;;;5044136;28;20041;-71
2023/09/04 10:36:05;;;;;;;387.85;369.20;;;26.10;99.90;;;;;;5047814;28;20106;-71
2023/09/04 10:38:32;;;;;;;370.65;353.15;;;26.20;99.90;;;;;;5061176;28;20045;-71
2023/09/04 10:40:58;;;;;;;350.10;333.77;;;26.30;99.90;;;;;;5038772;28;20103;-71
2023/09/04 10:43:41;;;;;;;365.50;348.10;;;26.30;99.90;;;;;;5034353;28;20044;-71
2023/09/04 10:46:13;;;;;;;321.30;306.88;;;26.40;99.90;;;;;;5035364;28;20488;-71
2023/09/04 10:48:48;;;;;;;352.42;335.88;;;26.40;99.90;;;;;;5041523;28;20075;-71
2023/09/04 10:51:29;;;;;;;;;;;26.50;99.90;;;;;;5037521;28;20033;-71
2023/09/04 10:53:57;;;;;;;313.45;299.08;;;26.60;99.90;;;;;;5028709;28;19927;-71
2023/09/04 10:56:22;;;;;;;287.17;274.70;;;26.70;99.90;;;;;;5042837;28;20156;-71
2023/09/04 10:58:58;;;;;;;285.58;272.75;;;26.80;99.90;;;;;;5047440;28;20095;-72
2023/09/04 11:01:31;;;;;;;253.57;242.75;;;26.90;99.90;;;;;;5044177;28;20037;-72
2023/09/04 11:03:57;;;;;;;286.30;273.15;;;27.00;99.90;;;;;;5037683;28;20080;-72
2023/09/04 11:06:22;;;;;;;201.35;192.80;;;27.10;99.90;;;;;;5041616;28;20141;-71
2023/09/04 11:08:53;;;;;;;194.10;185.85;;;27.10;99.90;;;;;;5047122;28;20048;-71
2023/09/04 11:11:26;;;;;;;191.70;183.63;;;27.00;99.90;;;;;;5054741;28;20045;-71
2023/09/04 11:14:11;;;;;;;257.38;246.27;;;26.90;99.90;;;;;;5043877;28;20041;-71
2023/09/04 11:16:41;;;;;;;230.45;220.40;;;26.90;99.90;;;;;;5031081;28;20040;-71
2023/09/04 11:19:15;;;;;;;131.32;125.75;;;27.00;99.90;;;;;;5043375;28;20878;-72
2023/09/04 11:21:43;;;;;;;133.20;127.63;;;27.10;99.90;;;;;;5027566;28;20044;-71
2023/09/04 11:24:09;;;;;;;128.75;123.22;;;27.30;99.90;;;;;;5046439;28;20279;-72
2023/09/04 11:26:34;;;;;;;134.23;128.57;;;27.30;99.90;;;;;;5047727;28;20044;-71
2023/09/04 11:29:02;;;;;;;120.60;115.40;;;27.30;99.90;;;;;;5045681;28;20069;-71
2023/09/04 11:31:29;;;;;;;109.72;105.07;;;27.20;99.90;;;;;;5058107;28;20045;-71
2023/09/04 11:33:56;;;;;;;104.45;100.07;;;27.20;99.90;;;;;;5060559;28;20048;-71
2023/09/04 11:36:23;;;;;;;111.10;106.28;;;27.10;99.60;;;;;;5044734;28;20041;-71
2023/09/04 11:39:12;;;;;;;124.90;119.63;;;27.10;99.90;;;;;;5029501;28;20052;-71
2023/09/04 11:41:38;;;;;;;118.22;113.25;;;27.00;99.60;;;;;;5046628;28;20724;-71
2023/09/04 11:44:06;;;;;;;134.52;128.80;;;27.10;99.90;;;;;;5043178;28;20045;-71
2023/09/04 11:46:35;;;;;;;188.10;180.02;;;27.10;99.50;;;;;;5048999;28;20044;-71
2023/09/04 11:49:05;;;;;;;170.30;162.95;;;27.20;99.60;;;;;;5053815;28;20412;-71
2023/09/04 11:51:35;;;;;;;179.23;171.40;;;27.40;99.30;;;;;;5060621;28;20136;-71
2023/09/04 11:54:04;;;;;;;185.60;177.48;;;27.50;99.10;;;;;;5046677;28;20037;-71
2023/09/04 11:56:30;;;;;;;184.63;176.68;;;27.50;98.90;;;;;;5031382;28;20037;-71
2023/09/04 11:58:56;;;;;;;237.18;226.75;;;27.60;98.80;;;;;;5049656;28;20036;-71
2023/09/04 12:01:22;;;;;;;208.98;199.55;;;27.70;98.90;;;;;;5029016;28;20037;-71
2023/09/04 12:03:49;;;;;;;214.57;205.15;;;27.80;99.30;;;;;;5029388;28;20667;-71